createdAt,value
2023-03-06T00:03:15.049Z,503.00
2023-03-06T00:07:15.233Z,507.00
2023-03-06T00:11:15.411Z,502.00
2023-03-06T00:15:15.577Z,503.00
2023-03-06T00:19:15.801Z,509.00
2023-03-06T00:23:16.007Z,506.00
2023-03-06T00:27:16.174Z,510.00
2023-03-06T00:31:16.365Z,506.00
2023-03-06T00:35:16.556Z,507.00
2023-03-06T00:39:18.720Z,505.00
2023-03-06T00:43:17.005Z,508.00
2023-03-06T00:47:17.004Z,504.00
2023-03-06T00:51:16.917Z,504.00
2023-03-06T00:55:17.250Z,506.00
2023-03-06T00:59:16.847Z,507.00
2023-03-06T01:03:16.787Z,505.00
2023-03-06T01:07:16.819Z,500.00
2023-03-06T01:11:16.729Z,505.00
2023-03-06T01:15:16.690Z,509.00
2023-03-06T01:19:16.670Z,503.00
2023-03-06T01:23:16.641Z,500.00
2023-03-06T01:27:16.623Z,507.00
2023-03-06T01:31:16.640Z,505.00
2023-03-06T01:35:16.528Z,507.00
2023-03-06T01:39:16.502Z,506.00
2023-03-06T01:43:16.474Z,505.00
2023-03-06T01:47:16.443Z,508.00
2023-03-06T01:51:16.408Z,508.00
2023-03-06T01:55:16.353Z,509.00
2023-03-06T01:59:16.309Z,508.00
2023-03-06T02:03:16.487Z,508.00
2023-03-06T02:07:16.441Z,507.00
2023-03-06T02:11:16.480Z,504.00
2023-03-06T02:15:16.358Z,505.00
2023-03-06T02:19:16.408Z,504.00
2023-03-06T02:23:16.297Z,502.00
2023-03-06T02:27:16.265Z,506.00
2023-03-06T02:31:16.238Z,506.00
2023-03-06T02:35:16.198Z,505.00
2023-03-06T02:39:16.145Z,509.00
2023-03-06T02:43:16.187Z,504.00
2023-03-06T02:47:16.370Z,504.00
2023-03-06T02:51:16.519Z,505.00
2023-03-06T02:55:16.748Z,509.00
2023-03-06T02:59:17.044Z,506.00
2023-03-06T03:03:17.128Z,510.00
2023-03-06T03:07:17.342Z,507.00
2023-03-06T03:11:17.304Z,503.00
2023-03-06T03:15:17.292Z,500.00
2023-03-06T03:19:17.250Z,502.00
2023-03-06T03:23:17.242Z,509.00
2023-03-06T03:27:17.168Z,509.00
2023-03-06T03:31:17.290Z,504.00
2023-03-06T03:35:17.083Z,504.00
2023-03-06T03:39:17.068Z,507.00
2023-03-06T03:43:17.006Z,504.00
2023-03-06T03:47:16.980Z,509.00
2023-03-06T03:51:16.946Z,503.00
2023-03-06T03:55:16.921Z,502.00
2023-03-06T03:59:16.850Z,507.00
2023-03-06T04:03:16.825Z,506.00
2023-03-06T04:07:16.781Z,508.00
2023-03-06T04:11:16.729Z,505.00
2023-03-06T04:15:16.733Z,503.00
2023-03-06T04:19:16.677Z,502.00
2023-03-06T04:23:16.711Z,504.00
2023-03-06T04:27:16.731Z,502.00
2023-03-06T04:31:16.795Z,503.00
2023-03-06T04:35:16.879Z,505.00
2023-03-06T04:39:16.970Z,504.00
2023-03-06T04:43:16.935Z,503.00
2023-03-06T04:47:19.029Z,505.00
2023-03-06T04:51:17.017Z,503.00
2023-03-06T04:55:17.063Z,504.00
2023-03-06T04:59:17.049Z,508.00
2023-03-06T05:03:17.028Z,507.00
2023-03-06T05:07:16.997Z,502.00
2023-03-06T05:11:17.026Z,504.00
2023-03-06T05:15:16.981Z,504.00
2023-03-06T05:19:17.004Z,504.00
2023-03-06T05:23:16.980Z,506.00
2023-03-06T05:27:17.050Z,508.00
2023-03-06T05:31:17.061Z,503.00
2023-03-06T05:35:16.890Z,508.00
2023-03-06T05:39:16.874Z,509.00
2023-03-06T05:43:16.853Z,501.00
2023-03-06T05:47:16.823Z,505.00
2023-03-06T05:51:16.844Z,507.00
2023-03-06T05:55:16.861Z,505.00
2023-03-06T05:59:16.810Z,507.00
2023-03-06T06:03:16.804Z,508.00
2023-03-06T06:07:16.753Z,506.00
2023-03-06T06:11:16.758Z,505.00
2023-03-06T06:15:16.743Z,507.00
2023-03-06T06:19:17.384Z,501.00
2023-03-06T06:23:16.674Z,507.00
2023-03-06T06:27:16.653Z,506.00
2023-03-06T06:31:16.676Z,513.00
2023-03-06T06:35:16.625Z,508.00
2023-03-06T06:39:16.668Z,539.00
2023-03-06T06:43:16.908Z,592.00
2023-03-06T06:47:25.665Z,617.00
2023-03-06T06:51:17.872Z,645.00
2023-03-06T06:55:16.782Z,701.00
2023-03-06T06:59:17.682Z,768.00
2023-03-06T07:03:17.394Z,847.00
2023-03-06T07:07:17.202Z,914.00
2023-03-06T07:11:17.404Z,942.00
2023-03-06T07:15:17.224Z,981.00
2023-03-06T07:19:17.408Z,996.00
2023-03-06T07:23:17.353Z,1064.00
2023-03-06T07:27:17.305Z,1093.00
2023-03-06T07:31:17.463Z,1130.00
2023-03-06T07:35:20.387Z,1168.00
2023-03-06T07:39:17.203Z,1185.00
2023-03-06T07:43:19.569Z,1228.00
2023-03-06T07:47:17.408Z,1234.00
2023-03-06T07:51:17.453Z,1194.00
2023-03-06T07:55:17.446Z,1237.00
2023-03-06T07:59:17.076Z,1210.00
2023-03-06T08:03:17.077Z,1171.00
2023-03-06T08:07:16.950Z,1128.00
2023-03-06T08:11:16.926Z,1077.00
2023-03-06T08:15:16.874Z,1061.00
2023-03-06T08:19:16.839Z,1033.00
2023-03-06T08:23:16.953Z,1010.00
2023-03-06T08:27:16.746Z,1016.00
2023-03-06T08:31:16.798Z,1013.00
2023-03-06T08:35:16.735Z,999.00
2023-03-06T08:39:16.977Z,994.00
2023-03-06T08:43:16.768Z,1009.00
2023-03-06T08:47:16.943Z,974.00
2023-03-06T08:51:17.436Z,987.00
2023-03-06T08:55:17.458Z,975.00
2023-03-06T08:59:16.989Z,992.00
2023-03-06T09:03:16.926Z,1001.00
2023-03-06T09:07:16.891Z,1055.00
2023-03-06T09:11:16.884Z,1020.00
2023-03-06T09:15:16.922Z,1023.00
2023-03-06T09:19:16.783Z,1028.00
2023-03-06T09:23:16.750Z,1107.00
2023-03-06T09:27:16.714Z,1033.00
2023-03-06T09:31:16.856Z,1024.00
2023-03-06T09:35:16.647Z,1014.00
2023-03-06T09:39:16.969Z,982.00
2023-03-06T09:43:16.987Z,1026.00
2023-03-06T09:47:16.981Z,1026.00
2023-03-06T09:51:16.695Z,917.00
2023-03-06T09:55:16.958Z,792.00
2023-03-06T09:59:17.484Z,715.00
2023-03-06T10:03:17.498Z,659.00
2023-03-06T10:07:17.471Z,602.00
2023-03-06T10:11:17.298Z,580.00
2023-03-06T10:15:17.323Z,554.00
2023-03-06T10:19:17.470Z,529.00
2023-03-06T10:23:17.498Z,534.00
2023-03-06T10:27:17.654Z,527.00
2023-03-06T10:31:18.582Z,504.00
2023-03-06T10:35:18.039Z,519.00
2023-03-06T10:39:18.493Z,528.00
2023-03-06T10:43:18.259Z,436.00
2023-03-06T10:47:18.596Z,500.00
2023-03-06T10:51:19.310Z,567.00
2023-03-06T10:55:18.990Z,555.00
2023-03-06T10:59:18.704Z,590.00
2023-03-06T11:03:19.071Z,596.00
2023-03-06T11:07:18.986Z,618.00
2023-03-06T11:11:35.037Z,606.00
2023-03-06T11:15:19.698Z,607.00
2023-03-06T11:19:18.635Z,584.00
2023-03-06T11:23:19.031Z,569.00
2023-03-06T11:27:19.006Z,587.00
2023-03-06T11:31:18.579Z,598.00
2023-03-06T11:35:18.511Z,591.00
2023-03-06T11:39:18.543Z,589.00
2023-03-06T11:43:18.539Z,1011.00
2023-03-06T11:47:18.405Z,1254.00
2023-03-06T11:51:18.513Z,1383.00
2023-03-06T11:55:18.337Z,1546.00
2023-03-06T11:59:18.294Z,1649.00
2023-03-06T12:03:18.290Z,1695.00
2023-03-06T12:07:18.234Z,1767.00
2023-03-06T12:15:18.249Z,1883.00
2023-03-06T12:19:18.471Z,1907.00
2023-03-06T12:23:18.581Z,1915.00
2023-03-06T12:27:19.048Z,1963.00
2023-03-06T12:31:19.059Z,1939.00
2023-03-06T12:35:19.113Z,1966.00
2023-03-06T12:39:19.134Z,1977.00
2023-03-06T12:43:19.375Z,1947.00
2023-03-06T12:47:19.593Z,1934.00
2023-03-06T12:51:19.272Z,1914.00
2023-03-06T12:55:22.693Z,1956.00
2023-03-06T12:59:19.227Z,1946.00
2023-03-06T13:03:19.181Z,1997.00
2023-03-06T13:07:19.136Z,1968.00
2023-03-06T13:11:19.266Z,1942.00
2023-03-06T13:15:19.228Z,1933.00
2023-03-06T13:19:19.203Z,1929.00
2023-03-06T13:23:19.598Z,1905.00
2023-03-06T13:27:19.108Z,1882.00
2023-03-06T13:31:27.220Z,1868.00
2023-03-06T13:35:20.106Z,1852.00
2023-03-06T13:39:19.021Z,1856.00
2023-03-06T13:43:19.234Z,1849.00
2023-03-06T13:47:19.414Z,1830.00
2023-03-06T13:51:19.550Z,1814.00
2023-03-06T13:55:19.638Z,1791.00
2023-03-06T13:59:19.657Z,1746.00
2023-03-06T14:03:19.655Z,1716.00
2023-03-06T14:07:19.709Z,981.00
2023-03-06T14:11:19.822Z,752.00
2023-03-06T14:15:19.788Z,712.00
2023-03-06T14:19:19.776Z,926.00
2023-03-06T14:23:19.684Z,1104.00
2023-03-06T14:27:19.703Z,1212.00
2023-03-06T14:31:19.668Z,1229.00
2023-03-06T14:35:19.677Z,1242.00
2023-03-06T14:39:19.579Z,1264.00
2023-03-06T14:43:19.526Z,1279.00
2023-03-06T14:47:19.496Z,1270.00
2023-03-06T14:51:19.470Z,1258.00
2023-03-06T14:55:19.409Z,1277.00
2023-03-06T14:59:19.386Z,1295.00
2023-03-06T15:03:19.613Z,1290.00
2023-03-06T15:07:19.319Z,1294.00
2023-03-06T15:11:19.254Z,1287.00
2023-03-06T15:15:19.668Z,1284.00
2023-03-06T15:19:19.316Z,1282.00
2023-03-06T15:23:19.720Z,1287.00
2023-03-06T15:27:19.536Z,1274.00
2023-03-06T15:31:19.670Z,1268.00
2023-03-06T15:35:19.775Z,1271.00
2023-03-06T15:39:19.823Z,1275.00
2023-03-06T15:43:19.959Z,1261.00
2023-03-06T15:47:20.041Z,1252.00
2023-03-06T15:51:20.202Z,1259.00
2023-03-06T15:55:20.262Z,1255.00
2023-03-06T15:59:20.363Z,1235.00
2023-03-06T16:03:20.454Z,1237.00
2023-03-06T16:07:20.566Z,1230.00
2023-03-06T16:11:20.633Z,1215.00
2023-03-06T16:15:20.723Z,1228.00
2023-03-06T16:19:27.954Z,1211.00
2023-03-06T16:23:21.835Z,1205.00
2023-03-06T16:27:21.173Z,1206.00
2023-03-06T16:31:20.745Z,1197.00
2023-03-06T16:35:20.725Z,1189.00
2023-03-06T16:39:20.765Z,1192.00
2023-03-06T16:43:20.951Z,1195.00
2023-03-06T16:47:20.985Z,1193.00
2023-03-06T16:51:21.089Z,1181.00
2023-03-06T16:55:21.246Z,1165.00
2023-03-06T16:59:21.398Z,1164.00
2023-03-06T17:03:21.696Z,1160.00
2023-03-06T17:07:21.715Z,1157.00
2023-03-06T17:11:21.832Z,1150.00
2023-03-06T17:15:21.957Z,1156.00
2023-03-06T17:19:22.124Z,1137.00
2023-03-06T17:23:22.229Z,1135.00
2023-03-06T17:27:22.401Z,1132.00
2023-03-06T17:31:22.584Z,1121.00
2023-03-06T17:35:22.749Z,1127.00
2023-03-06T17:39:22.855Z,1115.00
2023-03-06T17:43:22.990Z,1114.00
2023-03-06T17:47:23.172Z,1113.00
2023-03-06T17:51:23.321Z,1108.00
2023-03-06T17:55:23.507Z,1101.00
2023-03-06T17:59:23.661Z,1099.00
2023-03-06T18:03:23.838Z,1081.00
2023-03-06T18:07:24.047Z,1092.00
2023-03-06T18:11:24.242Z,1085.00
2023-03-06T18:15:24.425Z,1068.00
2023-03-06T18:19:24.575Z,1070.00
2023-03-06T18:23:24.795Z,1058.00
2023-03-06T18:27:25.002Z,1059.00
2023-03-06T18:31:25.235Z,1051.00
2023-03-06T18:35:25.438Z,1058.00
2023-03-06T18:39:25.579Z,1041.00
2023-03-06T18:43:25.762Z,1046.00
2023-03-06T18:47:25.992Z,1018.00
2023-03-06T18:51:26.225Z,1032.00
2023-03-06T18:55:26.456Z,1029.00
2023-03-06T18:59:26.643Z,1027.00
2023-03-06T19:03:26.618Z,1021.00
2023-03-06T19:07:26.683Z,1001.00
2023-03-06T19:11:26.537Z,998.00
2023-03-06T19:15:26.512Z,999.00
2023-03-06T19:19:26.488Z,989.00
2023-03-06T19:23:26.436Z,995.00
2023-03-06T19:27:26.406Z,984.00
2023-03-06T19:31:26.634Z,975.00
2023-03-06T19:35:26.390Z,974.00
2023-03-06T19:39:26.320Z,976.00
2023-03-06T19:43:26.237Z,969.00
2023-03-06T19:47:26.233Z,968.00
2023-03-06T19:51:26.197Z,962.00
2023-03-06T19:55:26.141Z,951.00
2023-03-06T19:59:26.127Z,942.00
2023-03-06T20:03:26.068Z,942.00
2023-03-06T20:07:26.053Z,946.00
2023-03-06T20:11:26.091Z,938.00
2023-03-06T20:15:26.071Z,927.00
2023-03-06T20:19:26.073Z,927.00
2023-03-06T20:23:26.055Z,917.00
2023-03-06T20:27:25.973Z,913.00
2023-03-06T20:31:26.052Z,923.00
2023-03-06T20:35:25.893Z,911.00
2023-03-06T20:39:25.860Z,901.00
2023-03-06T20:43:25.857Z,896.00
2023-03-06T20:47:25.823Z,902.00
2023-03-06T20:51:25.775Z,902.00
2023-03-06T20:55:25.725Z,882.00
2023-03-06T20:59:25.917Z,889.00
2023-03-06T21:03:25.858Z,886.00
2023-03-06T21:07:25.852Z,880.00
2023-03-06T21:11:25.786Z,870.00
2023-03-06T21:15:25.733Z,868.00
2023-03-06T21:19:25.747Z,866.00
2023-03-06T21:23:25.701Z,869.00
2023-03-06T21:27:25.646Z,863.00
2023-03-06T21:31:25.665Z,860.00
2023-03-06T21:35:25.655Z,851.00
2023-03-06T21:39:25.571Z,839.00
2023-03-06T21:43:25.524Z,843.00
2023-03-06T21:47:25.507Z,846.00
2023-03-06T21:51:25.422Z,842.00
2023-03-06T21:55:25.417Z,845.00
2023-03-06T21:59:25.501Z,827.00
2023-03-06T22:03:25.519Z,823.00
2023-03-06T22:07:25.511Z,822.00
2023-03-06T22:11:25.529Z,820.00
2023-03-06T22:15:25.573Z,820.00
2023-03-06T22:19:25.617Z,805.00
2023-03-06T22:23:25.642Z,806.00
2023-03-06T22:27:25.691Z,812.00
2023-03-06T22:31:25.768Z,806.00
2023-03-06T22:35:25.719Z,795.00
2023-03-06T22:39:25.669Z,801.00
2023-03-06T22:43:25.635Z,799.00
2023-03-06T22:47:25.650Z,798.00
2023-03-06T22:51:25.611Z,786.00
2023-03-06T22:55:25.596Z,779.00
2023-03-06T22:59:25.571Z,775.00
2023-03-06T23:03:25.534Z,767.00
2023-03-06T23:07:25.512Z,774.00
2023-03-06T23:11:25.501Z,780.00
2023-03-06T23:15:25.493Z,772.00
2023-03-06T23:19:25.494Z,750.00
2023-03-06T23:23:25.465Z,774.00
2023-03-06T23:27:25.496Z,757.00
2023-03-06T23:31:25.474Z,734.00
2023-03-06T23:35:25.482Z,748.00
2023-03-06T23:39:25.425Z,755.00
2023-03-06T23:43:25.404Z,754.00
2023-03-06T23:47:25.393Z,735.00
2023-03-06T23:51:25.336Z,727.00
2023-03-06T23:55:25.334Z,740.00
2023-03-06T23:59:25.334Z,727.00
